Pagrindinis puslapis
METAR-TAF:

METAR-TAF

Oro uostai :

Ronebis, Švedija

platuma: 56-16N, ilguma: 015-17E, Aukštis: 58 m

Dabartinis oras

Ataskaita buvo paskelbta 28 minutes, ne 13:50 UTC
Vėjas 5 kt iš Šiaurės/Šiaurės Vakarų, svyruoja nuo Vakarų ir Šiaurės/Šiaurės Rytų
Temperatūra 7°C
Drėgmė 39%
Slėgis 1015 hPa
Matomumas 10 km arba daugiau
nėra debesų žemiau 1500 m ir nėra kamuolinių lietaus debesų

METAR: ESDF 201350Z 33005KT 280V030 CAVOK 07/M06 Q1015

Laikas: 16:18 (14:18 UTC)

Prognozė

Ataskaita buvo paskelbta 2 valandos ir 48 minutes, ne 11:30 UTC
Prognozė galioja nuo 20 metu 12 UTC su 20 metu 14 UTC
Vėjas 5 kt iš Šiaurės
Matomumas 10 km arba daugiau
nėra debesų žemiau 1500 m ir nėra kamuolinių lietaus debesų

TAF: ESDF 201130Z 2012/2014 35005KT CAVOK

Orai ataskaitas ir orų prognozės (METAR, TAF).

turimą stotys yra geltonos ir raudonos taškus žemėlapyje.

Perkelti pele per norėdami pamatyti stoties vardą.

Tada spustelėkite, norėdami matyti oro stebėjimo ir prognozės.

Norėdami pakeisti žemėlapį: spustelėkite ant žalios mygtukų su juodo kryžiaus žemyn,; žalią mygtuką su brūkšneliu, jei norite nutolinti; arba žalių rodyklių gretimoms žemėlapius.


METAR-TAF: